createdAt,value
2018-11-11T00:00:09.989Z,47.17
2018-11-11T00:02:37.218Z,47.23
2018-11-11T00:05:05.288Z,46.13
2018-11-11T00:07:32.667Z,50.17
2018-11-11T00:09:59.872Z,49.47
2018-11-11T00:12:27.088Z,49.37
2018-11-11T00:14:54.451Z,48.97
2018-11-11T00:17:22.250Z,50.77
2018-11-11T00:19:49.479Z,50.30
2018-11-11T00:22:16.743Z,50.00
2018-11-11T00:24:43.967Z,50.53
2018-11-11T00:27:11.464Z,49.13
2018-11-11T00:29:38.839Z,49.87
2018-11-11T00:32:06.268Z,52.60
2018-11-11T00:34:33.509Z,50.53
2018-11-11T00:37:00.861Z,51.67
2018-11-11T00:39:28.180Z,54.27
2018-11-11T00:41:55.387Z,53.67
2018-11-11T00:44:22.778Z,51.37
2018-11-11T00:46:50.023Z,53.73
2018-11-11T00:49:17.295Z,55.63
2018-11-11T00:51:44.646Z,55.23
2018-11-11T00:54:11.882Z,55.43
2018-11-11T00:56:39.115Z,55.47
2018-11-11T00:59:06.865Z,53.07
2018-11-11T01:01:34.112Z,55.57
2018-11-11T01:04:01.340Z,55.23
2018-11-11T01:06:28.698Z,55.60
2018-11-11T01:08:55.939Z,55.47
2018-11-11T01:11:23.201Z,54.53
2018-11-11T01:13:50.539Z,55.00
2018-11-11T01:16:17.772Z,54.60
2018-11-11T01:18:45.000Z,56.53
2018-11-11T01:21:12.288Z,56.57
2018-11-11T01:23:39.532Z,53.27
2018-11-11T01:26:06.759Z,54.23
2018-11-11T01:28:34.173Z,52.50
2018-11-11T01:31:01.427Z,53.37
2018-11-11T01:33:28.691Z,54.17
2018-11-11T01:35:56.084Z,52.80
2018-11-11T01:38:23.314Z,53.67
2018-11-11T01:40:50.540Z,55.13
2018-11-11T01:43:17.916Z,54.93
2018-11-11T01:45:45.140Z,55.97
2018-11-11T01:48:12.361Z,56.47
2018-11-11T01:50:39.720Z,54.27
2018-11-11T01:53:06.971Z,51.07
2018-11-11T01:55:34.202Z,55.00
2018-11-11T01:58:01.559Z,53.03
2018-11-11T02:00:28.827Z,52.57
2018-11-11T02:02:56.058Z,53.40
2018-11-11T02:05:23.399Z,53.07
2018-11-11T02:07:50.641Z,52.63
2018-11-11T02:10:17.903Z,54.63
2018-11-11T02:12:45.947Z,54.20
2018-11-11T02:15:14.419Z,54.50
2018-11-11T02:17:41.660Z,54.67
2018-11-11T02:20:11.507Z,54.70
2018-11-11T02:22:38.735Z,55.70
2018-11-11T02:25:06.297Z,55.00
2018-11-11T02:27:33.691Z,54.60
2018-11-11T02:30:00.938Z,52.60
2018-11-11T02:32:28.244Z,54.73
2018-11-11T02:34:55.513Z,53.87
2018-11-11T02:37:22.743Z,53.27
2018-11-11T02:39:49.992Z,52.87
2018-11-11T02:42:17.354Z,54.23
2018-11-11T02:44:44.586Z,54.17
2018-11-11T02:47:11.818Z,53.87
2018-11-11T02:49:39.147Z,53.70
2018-11-11T02:52:06.400Z,58.60
2018-11-11T02:54:33.638Z,54.97
2018-11-11T02:57:00.986Z,54.40
2018-11-11T02:59:28.241Z,56.20
2018-11-11T03:01:55.480Z,53.00
2018-11-11T03:04:22.907Z,54.77
2018-11-11T03:06:50.088Z,52.43
2018-11-11T03:09:17.330Z,55.10
2018-11-11T03:11:44.606Z,53.17
2018-11-11T03:14:11.847Z,53.83
2018-11-11T03:16:39.157Z,53.80
2018-11-11T03:19:06.933Z,53.67
2018-11-11T03:21:34.181Z,54.93
2018-11-11T03:24:01.740Z,56.00
2018-11-11T03:26:29.086Z,53.47
2018-11-11T03:28:56.339Z,53.13
2018-11-11T03:31:23.634Z,51.77
2018-11-11T03:33:50.988Z,52.67
2018-11-11T03:36:18.430Z,50.50
2018-11-11T03:38:46.014Z,53.27
2018-11-11T03:41:13.485Z,51.67
2018-11-11T03:43:40.722Z,51.50
2018-11-11T03:46:07.977Z,52.87
2018-11-11T03:48:35.321Z,53.10
2018-11-11T03:51:02.571Z,51.87
2018-11-11T03:53:29.790Z,49.63
2018-11-11T03:55:57.151Z,53.50
2018-11-11T03:58:24.375Z,52.40
2018-11-11T04:00:51.615Z,53.50
2018-11-11T04:03:18.904Z,52.37
2018-11-11T04:05:46.140Z,52.93
2018-11-11T04:08:13.374Z,53.90
2018-11-11T04:10:40.722Z,53.53
2018-11-11T04:13:07.941Z,53.87
2018-11-11T04:15:35.187Z,54.37
2018-11-11T04:18:02.544Z,54.27
2018-11-11T04:20:29.768Z,52.57
2018-11-11T04:22:57.019Z,53.47
2018-11-11T04:25:24.367Z,55.17
2018-11-11T04:27:51.600Z,50.63
2018-11-11T04:30:18.830Z,52.97
2018-11-11T04:32:46.178Z,56.53
2018-11-11T04:35:13.487Z,54.83
2018-11-11T04:37:40.756Z,56.20
2018-11-11T04:40:09.362Z,55.73
2018-11-11T04:42:36.863Z,55.83
2018-11-11T04:45:05.464Z,56.70
2018-11-11T04:47:33.531Z,54.03
2018-11-11T04:50:00.802Z,51.67
2018-11-11T04:52:28.028Z,53.87
2018-11-11T04:54:55.370Z,55.37
2018-11-11T04:57:22.598Z,53.87
2018-11-11T04:59:49.859Z,52.83
2018-11-11T05:02:17.195Z,52.10
2018-11-11T05:04:44.529Z,54.57
2018-11-11T05:07:11.692Z,51.67
2018-11-11T05:09:38.946Z,52.50
2018-11-11T05:12:06.195Z,53.83
2018-11-11T05:14:33.389Z,54.93
2018-11-11T05:17:00.778Z,51.90
2018-11-11T05:19:28.041Z,52.07
2018-11-11T05:21:55.312Z,54.73
2018-11-11T05:24:22.644Z,57.17
2018-11-11T05:26:49.871Z,55.20
2018-11-11T05:29:17.112Z,55.13
2018-11-11T05:31:44.476Z,55.77
2018-11-11T05:34:11.709Z,57.47
2018-11-11T05:36:38.939Z,58.80
2018-11-11T05:39:08.332Z,57.87
2018-11-11T05:41:35.638Z,58.87
2018-11-11T05:44:02.887Z,56.63
2018-11-11T05:46:30.274Z,59.60
2018-11-11T05:48:57.507Z,59.17
2018-11-11T05:51:24.743Z,58.03
2018-11-11T05:53:52.091Z,60.00
2018-11-11T05:56:19.335Z,60.53
2018-11-11T05:58:46.590Z,63.27
2018-11-11T06:01:13.947Z,63.70
2018-11-11T06:03:41.192Z,62.27
2018-11-11T06:06:09.167Z,66.83
2018-11-11T06:08:37.182Z,65.13
2018-11-11T06:11:04.507Z,65.50
2018-11-11T06:13:31.815Z,63.53
2018-11-11T06:15:59.116Z,60.53
2018-11-11T06:18:26.375Z,61.30
2018-11-11T06:20:53.629Z,64.73
2018-11-11T06:23:20.978Z,59.57
2018-11-11T06:25:48.231Z,59.13
2018-11-11T06:28:15.481Z,58.90
2018-11-11T06:30:42.826Z,62.00
2018-11-11T06:33:10.038Z,59.07
2018-11-11T06:35:37.934Z,59.73
2018-11-11T06:38:05.114Z,60.13
2018-11-11T06:40:32.339Z,59.80
2018-11-11T06:42:59.571Z,57.17
2018-11-11T06:45:26.852Z,59.50
2018-11-11T06:47:54.141Z,56.40
2018-11-11T06:50:21.367Z,59.70
2018-11-11T06:52:48.706Z,56.77
2018-11-11T06:55:15.979Z,57.97
2018-11-11T06:57:43.212Z,56.47
2018-11-11T07:00:12.655Z,58.10
2018-11-11T07:02:50.135Z,56.63
2018-11-11T07:05:17.389Z,55.97
2018-11-11T07:07:44.626Z,56.83
2018-11-11T07:10:11.866Z,54.87
2018-11-11T07:12:39.209Z,52.97
2018-11-11T07:15:06.451Z,56.60
2018-11-11T07:17:33.675Z,57.60
2018-11-11T07:20:01.014Z,57.80
2018-11-11T07:22:28.245Z,56.77
2018-11-11T07:24:55.474Z,55.20
2018-11-11T07:27:22.814Z,54.90
2018-11-11T07:29:50.043Z,56.07
2018-11-11T07:32:17.287Z,57.97
2018-11-11T07:34:44.637Z,55.13
2018-11-11T07:37:11.868Z,53.73
2018-11-11T07:39:39.110Z,52.50
2018-11-11T07:42:06.458Z,54.87
2018-11-11T07:44:33.676Z,55.90
2018-11-11T07:47:00.913Z,52.37
2018-11-11T07:49:28.505Z,51.57
2018-11-11T07:51:55.741Z,53.60
2018-11-11T07:54:22.980Z,55.67
2018-11-11T07:56:50.343Z,53.93
2018-11-11T07:59:17.575Z,55.50
2018-11-11T08:01:44.973Z,53.37
2018-11-11T08:04:12.172Z,55.57
2018-11-11T08:06:39.389Z,53.83
2018-11-11T08:09:06.938Z,52.97
2018-11-11T08:11:45.877Z,56.43
2018-11-11T08:14:13.111Z,53.03
2018-11-11T08:16:40.384Z,53.43
2018-11-11T08:19:07.707Z,56.40
2018-11-11T08:21:34.938Z,52.97
2018-11-11T08:24:02.231Z,53.77
2018-11-11T08:26:29.581Z,53.30
2018-11-11T08:28:56.807Z,51.00
2018-11-11T08:31:24.041Z,55.80
2018-11-11T08:33:51.311Z,53.40
2018-11-11T08:36:18.546Z,52.63
2018-11-11T08:38:45.774Z,50.97
2018-11-11T08:41:13.105Z,50.60
2018-11-11T08:43:40.318Z,53.63
2018-11-11T08:46:07.526Z,51.70
2018-11-11T08:48:34.891Z,52.93
2018-11-11T08:51:02.090Z,48.90
2018-11-11T08:53:29.392Z,49.30
2018-11-11T08:55:56.675Z,49.20
2018-11-11T08:58:23.921Z,49.37
2018-11-11T09:00:51.183Z,44.50
2018-11-11T09:03:18.518Z,49.80
2018-11-11T09:05:45.746Z,47.43
2018-11-11T09:08:12.970Z,46.63
2018-11-11T09:10:40.987Z,46.83
2018-11-11T09:13:08.237Z,46.50
2018-11-11T09:15:35.462Z,47.40
2018-11-11T09:18:02.822Z,48.33
2018-11-11T09:20:30.057Z,47.40
2018-11-11T09:22:57.278Z,46.73
2018-11-11T09:25:24.582Z,48.67
2018-11-11T09:27:51.857Z,48.73
2018-11-11T09:30:19.174Z,49.90
2018-11-11T09:32:46.477Z,47.63
2018-11-11T09:35:13.815Z,45.77
2018-11-11T09:37:41.279Z,43.80
2018-11-11T09:40:09.647Z,45.17
2018-11-11T09:42:36.957Z,44.70
2018-11-11T09:45:06.883Z,44.57
2018-11-11T09:47:34.260Z,43.87
2018-11-11T09:50:01.499Z,43.40
2018-11-11T09:52:28.735Z,44.63
2018-11-11T09:54:56.106Z,46.53
2018-11-11T09:57:23.347Z,44.77
2018-11-11T09:59:50.667Z,42.53
2018-11-11T10:02:18.370Z,45.20
2018-11-11T10:05:04.943Z,43.13
2018-11-11T10:07:37.059Z,41.60
2018-11-11T10:10:09.801Z,42.70
2018-11-11T10:12:42.208Z,41.63
2018-11-11T10:15:15.994Z,43.17
2018-11-11T10:18:20.498Z,41.97
2018-11-11T10:20:52.152Z,44.43
2018-11-11T10:23:24.048Z,44.43
2018-11-11T10:26:16.715Z,45.23
2018-11-11T10:28:54.815Z,44.33
2018-11-11T10:31:41.661Z,43.53
2018-11-11T10:34:12.719Z,43.83
2018-11-11T10:36:48.317Z,42.67
2018-11-11T10:40:21.214Z,43.53
2018-11-11T10:42:54.305Z,41.57
2018-11-11T10:45:29.559Z,40.37
2018-11-11T10:48:05.503Z,42.43
2018-11-11T10:50:35.728Z,43.43
2018-11-11T10:53:02.989Z,42.37
2018-11-11T10:55:30.249Z,44.63
2018-11-11T10:57:57.619Z,42.77
2018-11-11T11:00:26.872Z,42.37
2018-11-11T11:02:54.096Z,46.43
2018-11-11T11:05:21.507Z,47.90
2018-11-11T11:07:48.783Z,45.43
2018-11-11T11:10:16.032Z,45.47
2018-11-11T11:12:50.139Z,45.30
2018-11-11T11:15:17.441Z,44.83
2018-11-11T11:17:44.703Z,45.53
2018-11-11T11:20:12.004Z,46.10
2018-11-11T11:22:39.238Z,46.00
2018-11-11T11:25:08.267Z,47.90
2018-11-11T11:27:35.598Z,45.97
2018-11-11T11:30:02.877Z,46.47
2018-11-11T11:32:30.111Z,46.93
2018-11-11T11:34:57.464Z,47.27
2018-11-11T11:37:24.726Z,46.73
2018-11-11T11:39:51.968Z,47.93
2018-11-11T11:42:19.250Z,49.10
2018-11-11T11:44:46.571Z,48.20
2018-11-11T11:47:13.785Z,46.20
2018-11-11T11:49:41.139Z,47.47
2018-11-11T11:52:08.449Z,49.53
2018-11-11T11:54:36.199Z,47.47
2018-11-11T11:57:03.659Z,47.07
2018-11-11T11:59:30.918Z,47.10
2018-11-11T12:01:58.172Z,46.67
2018-11-11T12:04:25.691Z,48.03
2018-11-11T12:06:52.983Z,47.53
2018-11-11T12:09:20.259Z,50.27
2018-11-11T12:11:47.607Z,50.10
2018-11-11T12:14:14.848Z,47.67
2018-11-11T12:16:43.299Z,47.87
2018-11-11T12:19:10.596Z,45.97
2018-11-11T12:21:37.823Z,48.67
2018-11-11T12:24:05.122Z,47.50
2018-11-11T12:26:32.469Z,50.03
2018-11-11T12:28:59.728Z,45.97
2018-11-11T12:31:26.967Z,43.90
2018-11-11T12:33:54.272Z,46.20
2018-11-11T12:36:21.527Z,44.83
2018-11-11T12:38:48.784Z,45.67
2018-11-11T12:41:16.149Z,47.53
2018-11-11T12:43:43.910Z,46.33
2018-11-11T12:46:11.176Z,44.77
2018-11-11T12:48:38.705Z,45.43
2018-11-11T12:51:05.998Z,43.87
2018-11-11T12:53:33.239Z,44.90
2018-11-11T12:56:00.610Z,42.47
2018-11-11T12:58:27.959Z,43.33
2018-11-11T13:00:55.247Z,44.17
2018-11-11T13:03:22.511Z,41.93
2018-11-11T13:05:49.796Z,41.37
2018-11-11T13:08:17.097Z,43.10
2018-11-11T13:10:44.521Z,37.33
2018-11-11T13:13:11.795Z,43.60
2018-11-11T13:15:39.076Z,40.93
2018-11-11T13:18:06.451Z,42.30
2018-11-11T13:20:33.709Z,42.43
2018-11-11T13:23:01.044Z,41.40
2018-11-11T13:25:28.370Z,41.63
2018-11-11T13:27:55.650Z,41.57
2018-11-11T13:30:22.941Z,38.73
2018-11-11T13:32:50.325Z,39.97
2018-11-11T13:35:17.558Z,42.73
2018-11-11T13:37:45.710Z,41.07
2018-11-11T13:40:14.667Z,40.80
2018-11-11T13:42:42.108Z,42.07
2018-11-11T13:45:12.013Z,43.23
2018-11-11T13:47:39.439Z,44.33
2018-11-11T13:50:09.453Z,44.07
2018-11-11T13:52:36.672Z,42.60
2018-11-11T13:55:05.226Z,43.03
2018-11-11T13:57:32.462Z,46.23
2018-11-11T13:59:59.743Z,44.90
2018-11-11T14:02:27.090Z,44.37
2018-11-11T14:04:54.358Z,42.80
2018-11-11T14:07:21.788Z,44.27
2018-11-11T14:09:49.173Z,45.13
2018-11-11T14:12:16.429Z,43.87
2018-11-11T14:14:43.729Z,42.97
2018-11-11T14:17:11.099Z,45.37
2018-11-11T14:19:38.440Z,44.80
2018-11-11T14:22:05.671Z,48.73
2018-11-11T14:24:33.260Z,46.33
2018-11-11T14:27:00.873Z,44.57
2018-11-11T14:29:28.168Z,46.93
2018-11-11T14:31:55.613Z,47.07
2018-11-11T14:34:22.978Z,45.67
2018-11-11T14:36:50.220Z,46.30
2018-11-11T14:39:17.610Z,46.30
2018-11-11T14:41:44.863Z,44.33
2018-11-11T14:44:12.128Z,43.27
2018-11-11T14:46:40.140Z,45.37
2018-11-11T14:49:08.173Z,46.00
2018-11-11T14:51:35.422Z,44.57
2018-11-11T14:54:02.850Z,46.30
2018-11-11T14:56:30.188Z,44.67
2018-11-11T14:58:57.643Z,47.03
2018-11-11T15:01:24.911Z,43.00
2018-11-11T15:03:52.179Z,45.50
2018-11-11T15:06:19.467Z,44.37
2018-11-11T15:08:46.863Z,44.60
2018-11-11T15:11:14.142Z,43.83
2018-11-11T15:13:41.451Z,43.03
2018-11-11T15:16:08.867Z,44.57
2018-11-11T15:18:36.142Z,43.70
2018-11-11T15:21:03.615Z,44.40
2018-11-11T15:23:30.918Z,46.17
2018-11-11T15:25:58.181Z,46.33
2018-11-11T15:28:25.454Z,47.70
2018-11-11T15:30:52.949Z,46.27
2018-11-11T15:33:20.122Z,46.40
2018-11-11T15:35:47.431Z,46.87
2018-11-11T15:38:14.839Z,45.97
2018-11-11T15:40:42.098Z,47.83
2018-11-11T15:43:09.360Z,45.23
2018-11-11T15:45:36.774Z,49.03
2018-11-11T15:48:04.595Z,47.40
2018-11-11T15:50:32.838Z,46.00
2018-11-11T15:53:01.650Z,47.40
2018-11-11T15:55:30.451Z,47.03
2018-11-11T15:57:57.746Z,46.60
2018-11-11T16:00:26.602Z,45.80
2018-11-11T16:02:53.911Z,46.70
2018-11-11T16:05:21.275Z,48.33
2018-11-11T16:07:49.702Z,47.57
2018-11-11T16:10:19.231Z,47.20
2018-11-11T16:12:46.767Z,47.90
2018-11-11T16:15:20.666Z,47.53
2018-11-11T16:17:49.470Z,48.07
2018-11-11T16:20:18.196Z,47.53
2018-11-11T16:22:46.765Z,46.87
2018-11-11T16:25:14.085Z,45.27
2018-11-11T16:27:42.396Z,46.50
2018-11-11T16:30:12.237Z,47.97
2018-11-11T16:32:39.979Z,45.70
2018-11-11T16:35:08.998Z,43.17
2018-11-11T16:37:36.940Z,45.20
2018-11-11T16:40:07.019Z,43.70
2018-11-11T16:42:35.161Z,43.60
2018-11-11T16:45:02.748Z,40.37
2018-11-11T16:47:29.972Z,41.03
2018-11-11T16:49:57.303Z,40.03
2018-11-11T16:52:24.706Z,39.93
2018-11-11T16:54:52.626Z,39.33
2018-11-11T16:57:19.922Z,40.13
2018-11-11T16:59:47.385Z,39.90
2018-11-11T17:02:14.634Z,37.77
2018-11-11T17:04:41.898Z,39.73
2018-11-11T17:07:09.300Z,41.53
2018-11-11T17:09:36.595Z,40.00
2018-11-11T17:12:04.311Z,38.97
2018-11-11T17:14:31.697Z,40.33
2018-11-11T17:16:58.979Z,38.53
2018-11-11T17:19:26.270Z,39.33
2018-11-11T17:21:53.918Z,41.07
2018-11-11T17:24:21.007Z,38.83
2018-11-11T17:26:48.272Z,40.40
2018-11-11T17:29:15.754Z,37.60
2018-11-11T17:31:43.041Z,37.73
2018-11-11T17:34:10.319Z,39.50
2018-11-11T17:36:37.688Z,40.87
2018-11-11T17:39:08.331Z,37.30
2018-11-11T17:41:35.588Z,38.10
2018-11-11T17:44:03.061Z,38.57
2018-11-11T17:46:30.412Z,37.77
2018-11-11T17:48:57.760Z,37.33
2018-11-11T17:51:25.262Z,37.03
2018-11-11T17:53:53.152Z,36.87
2018-11-11T17:56:20.490Z,37.57
2018-11-11T17:58:47.860Z,37.57
2018-11-11T18:01:15.176Z,37.43
2018-11-11T18:03:42.447Z,36.47
2018-11-11T18:06:09.814Z,39.53
2018-11-11T18:08:37.067Z,39.27
2018-11-11T18:11:04.350Z,39.03
2018-11-11T18:13:31.993Z,39.43
2018-11-11T18:15:59.264Z,40.47
2018-11-11T18:18:26.538Z,40.53
2018-11-11T18:20:53.913Z,39.07
2018-11-11T18:23:21.182Z,37.97
2018-11-11T18:25:48.412Z,38.40
2018-11-11T18:28:15.816Z,39.90
2018-11-11T18:30:43.105Z,38.93
2018-11-11T18:33:10.415Z,38.43
2018-11-11T18:35:37.817Z,39.30
2018-11-11T18:38:05.285Z,38.00
2018-11-11T18:40:32.571Z,36.70
2018-11-11T18:42:59.939Z,36.90
2018-11-11T18:45:28.467Z,36.90
2018-11-11T18:47:55.768Z,38.53
2018-11-11T18:50:27.749Z,37.43
2018-11-11T18:52:55.720Z,37.87
2018-11-11T18:55:23.035Z,36.33
2018-11-11T18:57:50.462Z,39.93
2018-11-11T19:00:26.594Z,37.97
2018-11-11T19:02:55.702Z,40.10
2018-11-11T19:05:23.787Z,37.57
2018-11-11T19:07:51.329Z,37.93
2018-11-11T19:10:20.367Z,38.40
2018-11-11T19:12:48.584Z,38.17
2018-11-11T19:15:16.695Z,35.97
2018-11-11T19:17:44.891Z,36.47
2018-11-11T19:20:13.567Z,36.10
2018-11-11T19:22:40.861Z,35.20
2018-11-11T19:25:11.025Z,34.87
2018-11-11T19:27:38.344Z,35.37
2018-11-11T19:30:06.689Z,32.70
2018-11-11T19:32:34.142Z,33.33
2018-11-11T19:35:01.447Z,33.03
2018-11-11T19:37:28.715Z,32.17
2018-11-11T19:39:56.150Z,31.90
2018-11-11T19:42:23.430Z,32.83
2018-11-11T19:44:50.712Z,31.57
2018-11-11T19:47:18.112Z,29.67
2018-11-11T19:49:45.413Z,29.20
2018-11-11T19:52:12.712Z,28.57
2018-11-11T19:54:40.177Z,29.73
2018-11-11T19:57:07.442Z,28.90
2018-11-11T19:59:34.680Z,28.40
2018-11-11T20:02:02.088Z,28.87
2018-11-11T20:04:29.394Z,27.90
2018-11-11T20:06:56.777Z,29.27
2018-11-11T20:09:24.187Z,28.07
2018-11-11T20:11:51.455Z,28.23
2018-11-11T20:14:18.844Z,27.90
2018-11-11T20:16:46.223Z,25.63
2018-11-11T20:19:13.574Z,26.03
2018-11-11T20:21:40.883Z,25.73
2018-11-11T20:24:08.258Z,25.83
2018-11-11T20:26:35.533Z,24.30
2018-11-11T20:29:02.922Z,26.00
2018-11-11T20:31:30.361Z,26.63
2018-11-11T20:33:57.654Z,25.67
2018-11-11T20:36:24.945Z,24.87
2018-11-11T20:38:52.288Z,26.03
2018-11-11T20:41:19.595Z,25.40
2018-11-11T20:43:46.918Z,26.10
2018-11-11T20:46:14.347Z,24.10
2018-11-11T20:48:41.619Z,24.30
2018-11-11T20:51:08.896Z,22.53
2018-11-11T20:53:36.275Z,22.43
2018-11-11T20:56:03.691Z,22.83
2018-11-11T20:58:30.999Z,21.73
2018-11-11T21:00:58.399Z,20.07
2018-11-11T21:03:25.694Z,20.90
2018-11-11T21:05:53.035Z,22.87
2018-11-11T21:08:20.402Z,21.10
2018-11-11T21:10:47.659Z,21.27
2018-11-11T21:13:14.912Z,22.33
2018-11-11T21:15:42.309Z,22.07
2018-11-11T21:18:09.572Z,22.07
2018-11-11T21:20:36.844Z,20.97
2018-11-11T21:23:04.546Z,20.40
2018-11-11T21:25:31.826Z,20.80
2018-11-11T21:27:59.050Z,20.53
2018-11-11T21:30:30.337Z,20.73
2018-11-11T21:32:57.779Z,21.60
2018-11-11T21:35:25.082Z,21.57
2018-11-11T21:37:52.510Z,20.93
2018-11-11T21:40:20.929Z,20.47
2018-11-11T21:42:48.869Z,22.57
2018-11-11T21:45:17.571Z,21.27
2018-11-11T21:47:45.222Z,21.63
2018-11-11T21:50:13.720Z,22.47
2018-11-11T21:52:42.311Z,21.53
2018-11-11T21:55:09.744Z,20.50
2018-11-11T21:57:37.025Z,20.93
2018-11-11T22:00:06.047Z,22.50
2018-11-11T22:02:33.334Z,21.17
2018-11-11T22:05:00.590Z,22.37
2018-11-11T22:07:27.866Z,22.43
2018-11-11T22:09:55.191Z,21.83
2018-11-11T22:12:22.387Z,22.43
2018-11-11T22:14:49.752Z,21.60
2018-11-11T22:17:17.000Z,22.20
2018-11-11T22:19:44.275Z,22.47
2018-11-11T22:22:11.586Z,22.70
2018-11-11T22:24:38.831Z,22.83
2018-11-11T22:27:06.170Z,23.13
2018-11-11T22:29:33.435Z,23.63
2018-11-11T22:32:01.436Z,23.27
2018-11-11T22:34:28.687Z,23.87
2018-11-11T22:36:55.964Z,23.27
2018-11-11T22:39:23.231Z,24.20
2018-11-11T22:41:50.459Z,23.63
2018-11-11T22:44:17.870Z,23.07
2018-11-11T22:46:45.138Z,22.53
2018-11-11T22:49:12.463Z,23.97
2018-11-11T22:51:39.764Z,24.57
2018-11-11T22:54:07.021Z,23.50
2018-11-11T22:56:34.275Z,22.77
2018-11-11T22:59:01.656Z,24.27
2018-11-11T23:01:28.937Z,22.77
2018-11-11T23:03:56.188Z,23.27
2018-11-11T23:06:23.567Z,23.80
2018-11-11T23:08:50.859Z,23.10
2018-11-11T23:11:18.158Z,24.80
2018-11-11T23:13:45.550Z,25.17
2018-11-11T23:16:12.855Z,23.93
2018-11-11T23:18:40.091Z,24.37
2018-11-11T23:21:07.475Z,25.13
2018-11-11T23:23:34.726Z,23.53
2018-11-11T23:26:02.079Z,22.60
2018-11-11T23:28:29.564Z,22.60
2018-11-11T23:30:56.747Z,24.43
2018-11-11T23:33:24.000Z,24.07
2018-11-11T23:35:51.560Z,23.33
2018-11-11T23:38:19.039Z,25.17
2018-11-11T23:40:46.311Z,24.80
2018-11-11T23:43:13.707Z,26.23
2018-11-11T23:45:40.959Z,25.43
2018-11-11T23:48:08.206Z,25.87
2018-11-11T23:50:35.608Z,24.50
2018-11-11T23:53:02.916Z,23.63
2018-11-11T23:55:30.151Z,23.90
2018-11-11T23:57:57.514Z,22.83
